Accueil
METAR-TAF:

METAR-TAF

Aéroports :

Aéroport de Florence-Peretola

Florence, Italie

latitude: 43-48N, longitude: 011-12E, altitude: 40 m

Observation

Le bulletin a été fait il y a 25 minutes, à 21:50 UTC
Vent 5 kt de est
Température 23°C
Humidité 73%
Pression 1016 hPa
Visibilité 10 km ou plus
pas de nuages en-dessous de 1500 mètres et pas de cumulonimbus.

METAR: LIRQ 162150Z 10005KT CAVOK 23/18 Q1016

Heure: 00:15 (22:15 UTC)

Prévision

Le bulletin a été fait il y a 5 heures et 15 minutes, à 17:00 UTC
Prévision valable du 16 à 18 UTC au 17 à 18 UTC
Vent 5 kt de direction variable
Visibilité 10 km ou plus
Quelques nuages à une hauteur de 3000 ft

TAF: LIRQ 161700Z 1618/1718 VRB05KT 9999 FEW030

Observations et prévisions météorologiques de plus de 4000 aéroports (messages METAR et TAF).

Les stations disponibles sont représentées par des disques jaunes et rouges sur la carte.

Passer la souris dessus pour voir le nom de la station.

Cliquer dessus pour voir les observations et prévisions météorologiques.

Pour changer de carte: cliquez sur les boutons verts avec une croix noire pour zoomer, sur le bouton vert avec un tiret pour effectuer un zoom arrière, ou sur les flèches vertes pour les cartes adjacentes.


METAR-TAF: